<?xml version="1.0" encoding="UTF-8" standalone="no" ?>
<gpx xmlns="http://www.topografix.com/GPX/1/1" xmlns:xsi="http://www.w3.org/2001/XMLSchema-instance" xsi:schemaLocation="http://www.topografix.com/GPX/1/1 http://www.topografix.com/GPX/1/1/gpx.xsd" version="1.1" creator="VisuGPX - https://www.visugpx.com">
  <metadata>
    <name>Grande Cournouse - Pas de Pabro et de la Charmate (Vercors)</name>
    <desc><![CDATA[Au départ de la Mairie de [b]Châtelus[/b].
A développer 
.
Autres sorties dans le Vercors --> [url]https://www.visugpx.com/membres/87/vercors/[/url]]]></desc>
  </metadata>
  <wpt lat="45.05676" lon="5.38453">
    <ele>789.8</ele>
    <name><![CDATA[panneaux pas de pabro et grotte]]></name>
    <desc><![CDATA[panneaux pas de pabro et grotte]]></desc>
    <cmt><![CDATA[panneaux pas de pabro et grotte]]></cmt>
  </wpt>
  <wpt lat="45.04703" lon="5.39009">
    <ele>874.6</ele>
    <name><![CDATA[WPT002]]></name>
    <desc><![CDATA[WPT002]]></desc>
    <cmt><![CDATA[WPT002]]></cmt>
  </wpt>
  <wpt lat="45.04668" lon="5.3905">
    <ele>871.1</ele>
    <name><![CDATA[pas des voutes]]></name>
    <desc><![CDATA[pas des voutes]]></desc>
    <cmt><![CDATA[pas des voutes]]></cmt>
  </wpt>
  <trk>
    <name><![CDATA[20181227193720-5EdTt]]></name>
    <trkseg>
      <trkpt lat="45.05766" lon="5.37319">
        <ele>544.13</ele>
        <time>2018-12-27T08:04:43Z</time>
      </trkpt>
      <trkpt lat="45.05752" lon="5.37337">
        <ele>521.93</ele>
        <time>2018-12-27T08:08:31Z</time>
      </trkpt>
      <trkpt lat="45.05736" lon="5.3735">
        <ele>523.61</ele>
        <time>2018-12-27T08:08:45Z</time>
      </trkpt>
      <trkpt lat="45.05727" lon="5.37373">
        <ele>525.01</ele>
        <time>2018-12-27T08:09:03Z</time>
      </trkpt>
      <trkpt lat="45.05723" lon="5.37398">
        <ele>517.81</ele>
        <time>2018-12-27T08:09:21Z</time>
      </trkpt>
      <trkpt lat="45.05702" lon="5.3741">
        <ele>525.55</ele>
        <time>2018-12-27T08:09:33Z</time>
      </trkpt>
      <trkpt lat="45.05692" lon="5.37388">
        <ele>527.17</ele>
        <time>2018-12-27T08:09:49Z</time>
      </trkpt>
      <trkpt lat="45.05673" lon="5.37381">
        <ele>528.17</ele>
        <time>2018-12-27T08:10:01Z</time>
      </trkpt>
      <trkpt lat="45.05657" lon="5.37368">
        <ele>531.8</ele>
        <time>2018-12-27T08:10:31Z</time>
      </trkpt>
      <trkpt lat="45.05642" lon="5.37352">
        <ele>532.01</ele>
        <time>2018-12-27T08:11:03Z</time>
      </trkpt>
      <trkpt lat="45.05624" lon="5.37344">
        <ele>532.01</ele>
        <time>2018-12-27T08:11:29Z</time>
      </trkpt>
      <trkpt lat="45.05605" lon="5.37346">
        <ele>535.99</ele>
        <time>2018-12-27T08:11:47Z</time>
      </trkpt>
      <trkpt lat="45.05586" lon="5.37345">
        <ele>538.04</ele>
        <time>2018-12-27T08:12:05Z</time>
      </trkpt>
      <trkpt lat="45.05566" lon="5.37344">
        <ele>539.97</ele>
        <time>2018-12-27T08:12:35Z</time>
      </trkpt>
      <trkpt lat="45.05585" lon="5.3735">
        <ele>541.17</ele>
        <time>2018-12-27T08:13:39Z</time>
      </trkpt>
      <trkpt lat="45.05602" lon="5.37368">
        <ele>553.61</ele>
        <time>2018-12-27T08:15:07Z</time>
      </trkpt>
      <trkpt lat="45.05615" lon="5.37387">
        <ele>556.37</ele>
        <time>2018-12-27T08:15:39Z</time>
      </trkpt>
      <trkpt lat="45.05628" lon="5.37406">
        <ele>547.64</ele>
        <time>2018-12-27T08:15:47Z</time>
      </trkpt>
      <trkpt lat="45.05644" lon="5.37418">
        <ele>545.93</ele>
        <time>2018-12-27T08:16:13Z</time>
      </trkpt>
      <trkpt lat="45.05654" lon="5.37443">
        <ele>547.41</ele>
        <time>2018-12-27T08:17:09Z</time>
      </trkpt>
      <trkpt lat="45.05656" lon="5.3747">
        <ele>556.4</ele>
        <time>2018-12-27T08:17:57Z</time>
      </trkpt>
      <trkpt lat="45.05659" lon="5.37496">
        <ele>561.78</ele>
        <time>2018-12-27T08:18:23Z</time>
      </trkpt>
      <trkpt lat="45.05642" lon="5.37509">
        <ele>582.77</ele>
        <time>2018-12-27T08:19:43Z</time>
      </trkpt>
      <trkpt lat="45.05626" lon="5.37498">
        <ele>585.78</ele>
        <time>2018-12-27T08:20:29Z</time>
      </trkpt>
      <trkpt lat="45.05607" lon="5.37502">
        <ele>589.79</ele>
        <time>2018-12-27T08:21:15Z</time>
      </trkpt>
      <trkpt lat="45.05599" lon="5.37527">
        <ele>598.55</ele>
        <time>2018-12-27T08:22:01Z</time>
      </trkpt>
      <trkpt lat="45.05604" lon="5.37552">
        <ele>598.89</ele>
        <time>2018-12-27T08:24:15Z</time>
      </trkpt>
      <trkpt lat="45.05604" lon="5.3758">
        <ele>601.41</ele>
        <time>2018-12-27T08:24:23Z</time>
      </trkpt>
      <trkpt lat="45.05598" lon="5.37605">
        <ele>610.54</ele>
        <time>2018-12-27T08:24:47Z</time>
      </trkpt>
      <trkpt lat="45.05609" lon="5.37626">
        <ele>624.73</ele>
        <time>2018-12-27T08:26:07Z</time>
      </trkpt>
      <trkpt lat="45.05601" lon="5.37663">
        <ele>622.41</ele>
        <time>2018-12-27T08:27:05Z</time>
      </trkpt>
      <trkpt lat="45.05594" lon="5.37687">
        <ele>636.76</ele>
        <time>2018-12-27T08:27:27Z</time>
      </trkpt>
      <trkpt lat="45.05601" lon="5.37711">
        <ele>652.12</ele>
        <time>2018-12-27T08:29:49Z</time>
      </trkpt>
      <trkpt lat="45.05613" lon="5.37733">
        <ele>661.91</ele>
        <time>2018-12-27T08:32:21Z</time>
      </trkpt>
      <trkpt lat="45.05622" lon="5.37756">
        <ele>666.8</ele>
        <time>2018-12-27T08:32:39Z</time>
      </trkpt>
      <trkpt lat="45.05626" lon="5.37781">
        <ele>677.8</ele>
        <time>2018-12-27T08:33:27Z</time>
      </trkpt>
      <trkpt lat="45.05638" lon="5.37803">
        <ele>681.12</ele>
        <time>2018-12-27T08:33:47Z</time>
      </trkpt>
      <trkpt lat="45.05647" lon="5.37827">
        <ele>692.19</ele>
        <time>2018-12-27T08:34:25Z</time>
      </trkpt>
      <trkpt lat="45.05658" lon="5.3785">
        <ele>695.82</ele>
        <time>2018-12-27T08:35:17Z</time>
      </trkpt>
      <trkpt lat="45.05675" lon="5.37864">
        <ele>699.57</ele>
        <time>2018-12-27T08:35:31Z</time>
      </trkpt>
      <trkpt lat="45.05691" lon="5.37876">
        <ele>706.99</ele>
        <time>2018-12-27T08:36:11Z</time>
      </trkpt>
      <trkpt lat="45.05711" lon="5.37877">
        <ele>711.93</ele>
        <time>2018-12-27T08:36:57Z</time>
      </trkpt>
      <trkpt lat="45.05729" lon="5.37878">
        <ele>720.03</ele>
        <time>2018-12-27T08:37:51Z</time>
      </trkpt>
      <trkpt lat="45.05727" lon="5.37912">
        <ele>718.65</ele>
        <time>2018-12-27T08:39:21Z</time>
      </trkpt>
      <trkpt lat="45.05715" lon="5.37936">
        <ele>724.36</ele>
        <time>2018-12-27T08:39:35Z</time>
      </trkpt>
      <trkpt lat="45.05693" lon="5.37928">
        <ele>734.69</ele>
        <time>2018-12-27T08:40:03Z</time>
      </trkpt>
      <trkpt lat="45.05687" lon="5.37954">
        <ele>744.17</ele>
        <time>2018-12-27T08:40:25Z</time>
      </trkpt>
      <trkpt lat="45.05671" lon="5.37969">
        <ele>756.92</ele>
        <time>2018-12-27T08:40:51Z</time>
      </trkpt>
      <trkpt lat="45.05656" lon="5.37983">
        <ele>753.16</ele>
        <time>2018-12-27T08:41:29Z</time>
      </trkpt>
      <trkpt lat="45.05638" lon="5.37978">
        <ele>759.64</ele>
        <time>2018-12-27T08:41:47Z</time>
      </trkpt>
      <trkpt lat="45.05621" lon="5.37971">
        <ele>763.92</ele>
        <time>2018-12-27T08:42:07Z</time>
      </trkpt>
      <trkpt lat="45.05628" lon="5.37997">
        <ele>758.84</ele>
        <time>2018-12-27T08:42:59Z</time>
      </trkpt>
      <trkpt lat="45.05643" lon="5.38012">
        <ele>772.76</ele>
        <time>2018-12-27T08:43:25Z</time>
      </trkpt>
      <trkpt lat="45.05651" lon="5.38036">
        <ele>779.32</ele>
        <time>2018-12-27T08:44:09Z</time>
      </trkpt>
      <trkpt lat="45.05665" lon="5.38055">
        <ele>787.97</ele>
        <time>2018-12-27T08:44:43Z</time>
      </trkpt>
      <trkpt lat="45.05653" lon="5.38036">
        <ele>785.87</ele>
        <time>2018-12-27T08:45:31Z</time>
      </trkpt>
      <trkpt lat="45.05652" lon="5.38063">
        <ele>792.96</ele>
        <time>2018-12-27T08:47:13Z</time>
      </trkpt>
      <trkpt lat="45.05636" lon="5.38076">
        <ele>794.95</ele>
        <time>2018-12-27T08:48:09Z</time>
      </trkpt>
      <trkpt lat="45.05619" lon="5.38083">
        <ele>816.77</ele>
        <time>2018-12-27T08:50:25Z</time>
      </trkpt>
      <trkpt lat="45.05623" lon="5.38115">
        <ele>822.85</ele>
        <time>2018-12-27T08:51:51Z</time>
      </trkpt>
      <trkpt lat="45.0563" lon="5.38139">
        <ele>828.17</ele>
        <time>2018-12-27T08:52:49Z</time>
      </trkpt>
      <trkpt lat="45.05632" lon="5.38165">
        <ele>829.96</ele>
        <time>2018-12-27T08:54:43Z</time>
      </trkpt>
      <trkpt lat="45.05629" lon="5.38191">
        <ele>835.36</ele>
        <time>2018-12-27T08:55:55Z</time>
      </trkpt>
      <trkpt lat="45.05625" lon="5.38216">
        <ele>836.04</ele>
        <time>2018-12-27T08:57:35Z</time>
      </trkpt>
      <trkpt lat="45.05626" lon="5.38242">
        <ele>841.96</ele>
        <time>2018-12-27T09:00:57Z</time>
      </trkpt>
      <trkpt lat="45.05616" lon="5.38263">
        <ele>837.62</ele>
        <time>2018-12-27T09:02:23Z</time>
      </trkpt>
      <trkpt lat="45.05605" lon="5.38285">
        <ele>838.03</ele>
        <time>2018-12-27T09:03:35Z</time>
      </trkpt>
      <trkpt lat="45.05597" lon="5.38311">
        <ele>831.17</ele>
        <time>2018-12-27T09:06:49Z</time>
      </trkpt>
      <trkpt lat="45.05606" lon="5.38334">
        <ele>836.89</ele>
        <time>2018-12-27T09:07:51Z</time>
      </trkpt>
      <trkpt lat="45.0562" lon="5.38354">
        <ele>838.21</ele>
        <time>2018-12-27T09:08:19Z</time>
      </trkpt>
      <trkpt lat="45.05619" lon="5.38381">
        <ele>834.24</ele>
        <time>2018-12-27T09:09:21Z</time>
      </trkpt>
      <trkpt lat="45.05633" lon="5.38401">
        <ele>846.6</ele>
        <time>2018-12-27T09:10:09Z</time>
      </trkpt>
      <trkpt lat="45.05638" lon="5.38426">
        <ele>839.89</ele>
        <time>2018-12-27T09:11:23Z</time>
      </trkpt>
      <trkpt lat="45.05655" lon="5.38438">
        <ele>843.85</ele>
        <time>2018-12-27T09:12:29Z</time>
      </trkpt>
      <trkpt lat="45.05661" lon="5.38462">
        <ele>836.93</ele>
        <time>2018-12-27T09:13:43Z</time>
      </trkpt>
      <trkpt lat="45.05662" lon="5.38488">
        <ele>829.73</ele>
        <time>2018-12-27T09:14:11Z</time>
      </trkpt>
      <trkpt lat="45.05672" lon="5.38511">
        <ele>836.82</ele>
        <time>2018-12-27T09:14:43Z</time>
      </trkpt>
      <trkpt lat="45.05681" lon="5.38533">
        <ele>829.18</ele>
        <time>2018-12-27T09:15:13Z</time>
      </trkpt>
      <trkpt lat="45.05691" lon="5.38556">
        <ele>836.05</ele>
        <time>2018-12-27T09:17:19Z</time>
      </trkpt>
      <trkpt lat="45.057" lon="5.38603">
        <ele>858.23</ele>
        <time>2018-12-27T09:30:27Z</time>
      </trkpt>
      <trkpt lat="45.05705" lon="5.38627">
        <ele>875.96</ele>
        <time>2018-12-27T09:31:41Z</time>
      </trkpt>
      <trkpt lat="45.05702" lon="5.38608">
        <ele>933.4</ele>
        <time>2018-12-27T09:37:46Z</time>
      </trkpt>
      <trkpt lat="45.05725" lon="5.38588">
        <ele>965.25</ele>
        <time>2018-12-27T10:06:06Z</time>
      </trkpt>
      <trkpt lat="45.05701" lon="5.38593">
        <ele>927.82</ele>
        <time>2018-12-27T10:06:58Z</time>
      </trkpt>
      <trkpt lat="45.05699" lon="5.3863">
        <ele>910.32</ele>
        <time>2018-12-27T10:08:31Z</time>
      </trkpt>
      <trkpt lat="45.05697" lon="5.38604">
        <ele>894.27</ele>
        <time>2018-12-27T10:08:45Z</time>
      </trkpt>
      <trkpt lat="45.05709" lon="5.38624">
        <ele>893.96</ele>
        <time>2018-12-27T10:09:47Z</time>
      </trkpt>
      <trkpt lat="45.05697" lon="5.38532">
        <ele>877.01</ele>
        <time>2018-12-27T10:16:43Z</time>
      </trkpt>
      <trkpt lat="45.057" lon="5.38506">
        <ele>882.65</ele>
        <time>2018-12-27T10:17:07Z</time>
      </trkpt>
      <trkpt lat="45.05684" lon="5.38492">
        <ele>881.77</ele>
        <time>2018-12-27T10:17:39Z</time>
      </trkpt>
      <trkpt lat="45.05681" lon="5.38464">
        <ele>884.37</ele>
        <time>2018-12-27T10:18:01Z</time>
      </trkpt>
      <trkpt lat="45.05666" lon="5.3848">
        <ele>870.26</ele>
        <time>2018-12-27T10:20:47Z</time>
      </trkpt>
      <trkpt lat="45.05648" lon="5.38498">
        <ele>931.45</ele>
        <time>2018-12-27T10:28:23Z</time>
      </trkpt>
      <trkpt lat="45.05632" lon="5.3851">
        <ele>925.3</ele>
        <time>2018-12-27T10:28:43Z</time>
      </trkpt>
      <trkpt lat="45.05632" lon="5.38536">
        <ele>938.77</ele>
        <time>2018-12-27T10:33:43Z</time>
      </trkpt>
      <trkpt lat="45.05624" lon="5.3856">
        <ele>953.91</ele>
        <time>2018-12-27T10:34:47Z</time>
      </trkpt>
      <trkpt lat="45.05609" lon="5.38584">
        <ele>974.84</ele>
        <time>2018-12-27T10:38:07Z</time>
      </trkpt>
      <trkpt lat="45.05603" lon="5.38613">
        <ele>977.82</ele>
        <time>2018-12-27T10:38:19Z</time>
      </trkpt>
      <trkpt lat="45.0562" lon="5.38622">
        <ele>977.17</ele>
        <time>2018-12-27T10:38:31Z</time>
      </trkpt>
      <trkpt lat="45.05635" lon="5.38638">
        <ele>973.17</ele>
        <time>2018-12-27T10:38:51Z</time>
      </trkpt>
      <trkpt lat="45.05647" lon="5.38661">
        <ele>976.61</ele>
        <time>2018-12-27T10:39:09Z</time>
      </trkpt>
      <trkpt lat="45.05667" lon="5.38673">
        <ele>978.01</ele>
        <time>2018-12-27T10:39:25Z</time>
      </trkpt>
      <trkpt lat="45.0569" lon="5.38677">
        <ele>960.13</ele>
        <time>2018-12-27T10:39:59Z</time>
      </trkpt>
      <trkpt lat="45.05708" lon="5.38683">
        <ele>953.86</ele>
        <time>2018-12-27T10:40:21Z</time>
      </trkpt>
      <trkpt lat="45.05726" lon="5.38687">
        <ele>949.65</ele>
        <time>2018-12-27T10:40:35Z</time>
      </trkpt>
      <trkpt lat="45.05744" lon="5.38692">
        <ele>950.14</ele>
        <time>2018-12-27T10:40:49Z</time>
      </trkpt>
      <trkpt lat="45.05757" lon="5.38711">
        <ele>948.95</ele>
        <time>2018-12-27T10:41:01Z</time>
      </trkpt>
      <trkpt lat="45.05776" lon="5.38714">
        <ele>941.77</ele>
        <time>2018-12-27T10:41:15Z</time>
      </trkpt>
      <trkpt lat="45.05796" lon="5.38719">
        <ele>941.72</ele>
        <time>2018-12-27T10:41:33Z</time>
      </trkpt>
      <trkpt lat="45.05816" lon="5.3872">
        <ele>933.99</ele>
        <time>2018-12-27T10:41:49Z</time>
      </trkpt>
      <trkpt lat="45.05831" lon="5.38734">
        <ele>927.88</ele>
        <time>2018-12-27T10:41:59Z</time>
      </trkpt>
      <trkpt lat="45.0585" lon="5.38721">
        <ele>930.1</ele>
        <time>2018-12-27T10:42:15Z</time>
      </trkpt>
      <trkpt lat="45.05865" lon="5.38738">
        <ele>916.9</ele>
        <time>2018-12-27T10:42:29Z</time>
      </trkpt>
      <trkpt lat="45.05879" lon="5.38754">
        <ele>909.07</ele>
        <time>2018-12-27T10:42:45Z</time>
      </trkpt>
      <trkpt lat="45.05857" lon="5.38736">
        <ele>940.35</ele>
        <time>2018-12-27T10:45:25Z</time>
      </trkpt>
      <trkpt lat="45.05838" lon="5.38745">
        <ele>928.01</ele>
        <time>2018-12-27T10:45:45Z</time>
      </trkpt>
      <trkpt lat="45.05823" lon="5.3873">
        <ele>939.98</ele>
        <time>2018-12-27T10:46:07Z</time>
      </trkpt>
      <trkpt lat="45.05805" lon="5.38727">
        <ele>932.7</ele>
        <time>2018-12-27T10:46:23Z</time>
      </trkpt>
      <trkpt lat="45.05785" lon="5.38727">
        <ele>945.81</ele>
        <time>2018-12-27T10:46:53Z</time>
      </trkpt>
      <trkpt lat="45.05766" lon="5.38722">
        <ele>951.81</ele>
        <time>2018-12-27T10:47:15Z</time>
      </trkpt>
      <trkpt lat="45.05747" lon="5.38711">
        <ele>957.73</ele>
        <time>2018-12-27T10:47:41Z</time>
      </trkpt>
      <trkpt lat="45.05732" lon="5.38691">
        <ele>956.37</ele>
        <time>2018-12-27T10:48:07Z</time>
      </trkpt>
      <trkpt lat="45.05714" lon="5.38688">
        <ele>960.18</ele>
        <time>2018-12-27T10:48:29Z</time>
      </trkpt>
      <trkpt lat="45.05696" lon="5.38692">
        <ele>969.02</ele>
        <time>2018-12-27T10:48:49Z</time>
      </trkpt>
      <trkpt lat="45.0568" lon="5.3868">
        <ele>963.83</ele>
        <time>2018-12-27T10:49:07Z</time>
      </trkpt>
      <trkpt lat="45.05661" lon="5.38678">
        <ele>977.63</ele>
        <time>2018-12-27T10:49:35Z</time>
      </trkpt>
      <trkpt lat="45.05643" lon="5.38663">
        <ele>977.94</ele>
        <time>2018-12-27T10:49:49Z</time>
      </trkpt>
      <trkpt lat="45.05625" lon="5.38647">
        <ele>984.86</ele>
        <time>2018-12-27T10:50:13Z</time>
      </trkpt>
      <trkpt lat="45.05609" lon="5.38633">
        <ele>980.9</ele>
        <time>2018-12-27T10:50:25Z</time>
      </trkpt>
      <trkpt lat="45.05595" lon="5.38617">
        <ele>976.62</ele>
        <time>2018-12-27T10:50:53Z</time>
      </trkpt>
      <trkpt lat="45.05587" lon="5.38594">
        <ele>985.13</ele>
        <time>2018-12-27T10:51:21Z</time>
      </trkpt>
      <trkpt lat="45.05571" lon="5.3858">
        <ele>986.96</ele>
        <time>2018-12-27T10:51:43Z</time>
      </trkpt>
      <trkpt lat="45.05553" lon="5.38566">
        <ele>997.18</ele>
        <time>2018-12-27T10:52:03Z</time>
      </trkpt>
      <trkpt lat="45.05536" lon="5.38544">
        <ele>994.77</ele>
        <time>2018-12-27T10:52:33Z</time>
      </trkpt>
      <trkpt lat="45.05539" lon="5.38518">
        <ele>1003.32</ele>
        <time>2018-12-27T10:53:05Z</time>
      </trkpt>
      <trkpt lat="45.05531" lon="5.38495">
        <ele>1009.01</ele>
        <time>2018-12-27T10:53:29Z</time>
      </trkpt>
      <trkpt lat="45.05514" lon="5.3848">
        <ele>1011.52</ele>
        <time>2018-12-27T10:53:49Z</time>
      </trkpt>
      <trkpt lat="45.05499" lon="5.38462">
        <ele>1011.98</ele>
        <time>2018-12-27T10:54:19Z</time>
      </trkpt>
      <trkpt lat="45.05481" lon="5.38457">
        <ele>1018.64</ele>
        <time>2018-12-27T10:54:41Z</time>
      </trkpt>
      <trkpt lat="45.05467" lon="5.38439">
        <ele>1016</ele>
        <time>2018-12-27T10:55:05Z</time>
      </trkpt>
      <trkpt lat="45.05449" lon="5.38429">
        <ele>1008.66</ele>
        <time>2018-12-27T10:55:23Z</time>
      </trkpt>
      <trkpt lat="45.05433" lon="5.38411">
        <ele>1031</ele>
        <time>2018-12-27T10:56:01Z</time>
      </trkpt>
      <trkpt lat="45.05416" lon="5.38401">
        <ele>1033.83</ele>
        <time>2018-12-27T10:56:25Z</time>
      </trkpt>
      <trkpt lat="45.05405" lon="5.3838">
        <ele>1041.04</ele>
        <time>2018-12-27T10:56:51Z</time>
      </trkpt>
      <trkpt lat="45.0539" lon="5.38361">
        <ele>1043.57</ele>
        <time>2018-12-27T10:57:19Z</time>
      </trkpt>
      <trkpt lat="45.05377" lon="5.38339">
        <ele>1049.29</ele>
        <time>2018-12-27T10:57:55Z</time>
      </trkpt>
      <trkpt lat="45.05363" lon="5.38321">
        <ele>1049.96</ele>
        <time>2018-12-27T10:58:13Z</time>
      </trkpt>
      <trkpt lat="45.0535" lon="5.38303">
        <ele>1062.17</ele>
        <time>2018-12-27T10:58:45Z</time>
      </trkpt>
      <trkpt lat="45.05333" lon="5.3829">
        <ele>1062.65</ele>
        <time>2018-12-27T10:59:07Z</time>
      </trkpt>
      <trkpt lat="45.05314" lon="5.3828">
        <ele>1061.04</ele>
        <time>2018-12-27T10:59:19Z</time>
      </trkpt>
      <trkpt lat="45.05293" lon="5.38268">
        <ele>1067.36</ele>
        <time>2018-12-27T10:59:39Z</time>
      </trkpt>
      <trkpt lat="45.05314" lon="5.38255">
        <ele>1069.26</ele>
        <time>2018-12-27T10:59:47Z</time>
      </trkpt>
      <trkpt lat="45.05297" lon="5.38244">
        <ele>1072.41</ele>
        <time>2018-12-27T11:00:09Z</time>
      </trkpt>
      <trkpt lat="45.05287" lon="5.38216">
        <ele>1080.09</ele>
        <time>2018-12-27T11:00:47Z</time>
      </trkpt>
      <trkpt lat="45.05266" lon="5.38207">
        <ele>1076.44</ele>
        <time>2018-12-27T11:01:05Z</time>
      </trkpt>
      <trkpt lat="45.05256" lon="5.38185">
        <ele>1082.79</ele>
        <time>2018-12-27T11:01:33Z</time>
      </trkpt>
      <trkpt lat="45.05259" lon="5.38159">
        <ele>1076.37</ele>
        <time>2018-12-27T11:02:05Z</time>
      </trkpt>
      <trkpt lat="45.05265" lon="5.38189">
        <ele>1074.95</ele>
        <time>2018-12-27T11:06:29Z</time>
      </trkpt>
      <trkpt lat="45.05247" lon="5.38193">
        <ele>1072.64</ele>
        <time>2018-12-27T11:06:57Z</time>
      </trkpt>
      <trkpt lat="45.05256" lon="5.38215">
        <ele>1088.68</ele>
        <time>2018-12-27T11:07:15Z</time>
      </trkpt>
      <trkpt lat="45.05269" lon="5.38237">
        <ele>1077.24</ele>
        <time>2018-12-27T11:07:31Z</time>
      </trkpt>
      <trkpt lat="45.05264" lon="5.38266">
        <ele>1070.51</ele>
        <time>2018-12-27T11:07:55Z</time>
      </trkpt>
      <trkpt lat="45.05257" lon="5.38292">
        <ele>1083.4</ele>
        <time>2018-12-27T11:08:15Z</time>
      </trkpt>
      <trkpt lat="45.05251" lon="5.38317">
        <ele>1087.59</ele>
        <time>2018-12-27T11:08:23Z</time>
      </trkpt>
      <trkpt lat="45.05231" lon="5.38327">
        <ele>1088.62</ele>
        <time>2018-12-27T11:08:31Z</time>
      </trkpt>
      <trkpt lat="45.05248" lon="5.38344">
        <ele>1094.48</ele>
        <time>2018-12-27T11:08:45Z</time>
      </trkpt>
      <trkpt lat="45.05231" lon="5.3836">
        <ele>1093.32</ele>
        <time>2018-12-27T11:09:03Z</time>
      </trkpt>
      <trkpt lat="45.05235" lon="5.38387">
        <ele>1093.58</ele>
        <time>2018-12-27T11:09:31Z</time>
      </trkpt>
      <trkpt lat="45.05228" lon="5.38414">
        <ele>1089.82</ele>
        <time>2018-12-27T11:09:59Z</time>
      </trkpt>
      <trkpt lat="45.05217" lon="5.38436">
        <ele>1094.88</ele>
        <time>2018-12-27T11:10:15Z</time>
      </trkpt>
      <trkpt lat="45.0521" lon="5.38467">
        <ele>1089.78</ele>
        <time>2018-12-27T11:10:41Z</time>
      </trkpt>
      <trkpt lat="45.05192" lon="5.3848">
        <ele>1103.36</ele>
        <time>2018-12-27T11:11:05Z</time>
      </trkpt>
      <trkpt lat="45.05172" lon="5.38497">
        <ele>1104.57</ele>
        <time>2018-12-27T11:11:15Z</time>
      </trkpt>
      <trkpt lat="45.05156" lon="5.38508">
        <ele>1098.01</ele>
        <time>2018-12-27T11:11:43Z</time>
      </trkpt>
      <trkpt lat="45.05147" lon="5.38532">
        <ele>1097.43</ele>
        <time>2018-12-27T11:12:01Z</time>
      </trkpt>
      <trkpt lat="45.05133" lon="5.38549">
        <ele>1099.25</ele>
        <time>2018-12-27T11:12:19Z</time>
      </trkpt>
      <trkpt lat="45.05123" lon="5.38574">
        <ele>1103.15</ele>
        <time>2018-12-27T11:12:37Z</time>
      </trkpt>
      <trkpt lat="45.05106" lon="5.38584">
        <ele>1105.96</ele>
        <time>2018-12-27T11:12:59Z</time>
      </trkpt>
      <trkpt lat="45.05095" lon="5.38604">
        <ele>1116</ele>
        <time>2018-12-27T11:13:19Z</time>
      </trkpt>
      <trkpt lat="45.05087" lon="5.38629">
        <ele>1119.24</ele>
        <time>2018-12-27T11:13:35Z</time>
      </trkpt>
      <trkpt lat="45.05074" lon="5.3865">
        <ele>1116.69</ele>
        <time>2018-12-27T11:13:53Z</time>
      </trkpt>
      <trkpt lat="45.05065" lon="5.38673">
        <ele>1116.99</ele>
        <time>2018-12-27T11:14:11Z</time>
      </trkpt>
      <trkpt lat="45.05054" lon="5.38693">
        <ele>1117.38</ele>
        <time>2018-12-27T11:14:35Z</time>
      </trkpt>
      <trkpt lat="45.05036" lon="5.38713">
        <ele>1122.96</ele>
        <time>2018-12-27T11:14:53Z</time>
      </trkpt>
      <trkpt lat="45.05019" lon="5.38721">
        <ele>1117.97</ele>
        <time>2018-12-27T11:15:29Z</time>
      </trkpt>
      <trkpt lat="45.05005" lon="5.38739">
        <ele>1120.57</ele>
        <time>2018-12-27T11:15:55Z</time>
      </trkpt>
      <trkpt lat="45.04997" lon="5.38763">
        <ele>1122.48</ele>
        <time>2018-12-27T11:16:11Z</time>
      </trkpt>
      <trkpt lat="45.04977" lon="5.38765">
        <ele>1119.97</ele>
        <time>2018-12-27T11:16:21Z</time>
      </trkpt>
      <trkpt lat="45.04957" lon="5.38775">
        <ele>1118.29</ele>
        <time>2018-12-27T11:16:43Z</time>
      </trkpt>
      <trkpt lat="45.04941" lon="5.38787">
        <ele>1115.71</ele>
        <time>2018-12-27T11:16:59Z</time>
      </trkpt>
      <trkpt lat="45.04921" lon="5.38795">
        <ele>1111.05</ele>
        <time>2018-12-27T11:17:15Z</time>
      </trkpt>
      <trkpt lat="45.04904" lon="5.38807">
        <ele>1108.06</ele>
        <time>2018-12-27T11:17:29Z</time>
      </trkpt>
      <trkpt lat="45.04888" lon="5.38822">
        <ele>1104.72</ele>
        <time>2018-12-27T11:17:47Z</time>
      </trkpt>
      <trkpt lat="45.04875" lon="5.38843">
        <ele>1113.72</ele>
        <time>2018-12-27T11:18:09Z</time>
      </trkpt>
      <trkpt lat="45.04854" lon="5.3885">
        <ele>1109.05</ele>
        <time>2018-12-27T11:18:29Z</time>
      </trkpt>
      <trkpt lat="45.04836" lon="5.38857">
        <ele>1109.69</ele>
        <time>2018-12-27T11:18:45Z</time>
      </trkpt>
      <trkpt lat="45.0482" lon="5.3887">
        <ele>1109.86</ele>
        <time>2018-12-27T11:19:01Z</time>
      </trkpt>
      <trkpt lat="45.04803" lon="5.38882">
        <ele>1113.32</ele>
        <time>2018-12-27T11:19:35Z</time>
      </trkpt>
      <trkpt lat="45.04785" lon="5.38888">
        <ele>1103.37</ele>
        <time>2018-12-27T11:19:49Z</time>
      </trkpt>
      <trkpt lat="45.04766" lon="5.38895">
        <ele>1096.45</ele>
        <time>2018-12-27T11:20:25Z</time>
      </trkpt>
      <trkpt lat="45.04748" lon="5.38912">
        <ele>1100.61</ele>
        <time>2018-12-27T11:20:45Z</time>
      </trkpt>
      <trkpt lat="45.0473" lon="5.38916">
        <ele>1099.68</ele>
        <time>2018-12-27T11:20:57Z</time>
      </trkpt>
      <trkpt lat="45.04718" lon="5.3894">
        <ele>1102.43</ele>
        <time>2018-12-27T11:21:11Z</time>
      </trkpt>
      <trkpt lat="45.04709" lon="5.38966">
        <ele>1089.21</ele>
        <time>2018-12-27T11:45:26Z</time>
      </trkpt>
      <trkpt lat="45.04723" lon="5.38949">
        <ele>1083.39</ele>
        <time>2018-12-27T11:47:08Z</time>
      </trkpt>
      <trkpt lat="45.04717" lon="5.38973">
        <ele>1090.21</ele>
        <time>2018-12-27T11:50:22Z</time>
      </trkpt>
      <trkpt lat="45.04705" lon="5.38994">
        <ele>1088.21</ele>
        <time>2018-12-27T11:50:42Z</time>
      </trkpt>
      <trkpt lat="45.04697" lon="5.39017">
        <ele>1101.12</ele>
        <time>2018-12-27T11:51:26Z</time>
      </trkpt>
      <trkpt lat="45.04703" lon="5.38988">
        <ele>1096.05</ele>
        <time>2018-12-27T11:54:27Z</time>
      </trkpt>
      <trkpt lat="45.04707" lon="5.39015">
        <ele>1096.26</ele>
        <time>2018-12-27T11:55:05Z</time>
      </trkpt>
      <trkpt lat="45.04722" lon="5.39033">
        <ele>1095.57</ele>
        <time>2018-12-27T11:55:19Z</time>
      </trkpt>
      <trkpt lat="45.0474" lon="5.3905">
        <ele>1096.98</ele>
        <time>2018-12-27T11:55:29Z</time>
      </trkpt>
      <trkpt lat="45.04726" lon="5.39073">
        <ele>1100.4</ele>
        <time>2018-12-27T11:55:55Z</time>
      </trkpt>
      <trkpt lat="45.04706" lon="5.39071">
        <ele>1103.67</ele>
        <time>2018-12-27T11:56:11Z</time>
      </trkpt>
      <trkpt lat="45.04687" lon="5.3906">
        <ele>1114.13</ele>
        <time>2018-12-27T11:56:29Z</time>
      </trkpt>
      <trkpt lat="45.0467" lon="5.39052">
        <ele>1116.18</ele>
        <time>2018-12-27T11:56:53Z</time>
      </trkpt>
      <trkpt lat="45.04689" lon="5.39056">
        <ele>1110.8</ele>
        <time>2018-12-27T12:05:29Z</time>
      </trkpt>
      <trkpt lat="45.04684" lon="5.39082">
        <ele>1106.76</ele>
        <time>2018-12-27T12:05:47Z</time>
      </trkpt>
      <trkpt lat="45.04691" lon="5.39107">
        <ele>1112.5</ele>
        <time>2018-12-27T12:06:31Z</time>
      </trkpt>
      <trkpt lat="45.04708" lon="5.39121">
        <ele>1118.6</ele>
        <time>2018-12-27T12:07:39Z</time>
      </trkpt>
      <trkpt lat="45.04689" lon="5.39117">
        <ele>1124.3</ele>
        <time>2018-12-27T12:07:51Z</time>
      </trkpt>
      <trkpt lat="45.04671" lon="5.39124">
        <ele>1137.94</ele>
        <time>2018-12-27T12:08:15Z</time>
      </trkpt>
      <trkpt lat="45.04652" lon="5.39122">
        <ele>1125.32</ele>
        <time>2018-12-27T12:08:39Z</time>
      </trkpt>
      <trkpt lat="45.04635" lon="5.39131">
        <ele>1139.32</ele>
        <time>2018-12-27T12:09:13Z</time>
      </trkpt>
      <trkpt lat="45.04625" lon="5.39153">
        <ele>1145.09</ele>
        <time>2018-12-27T12:09:35Z</time>
      </trkpt>
      <trkpt lat="45.04611" lon="5.3917">
        <ele>1140.03</ele>
        <time>2018-12-27T12:09:55Z</time>
      </trkpt>
      <trkpt lat="45.04607" lon="5.39197">
        <ele>1143.96</ele>
        <time>2018-12-27T12:10:21Z</time>
      </trkpt>
      <trkpt lat="45.046" lon="5.39224">
        <ele>1149.69</ele>
        <time>2018-12-27T12:10:47Z</time>
      </trkpt>
      <trkpt lat="45.04592" lon="5.3925">
        <ele>1158.45</ele>
        <time>2018-12-27T12:11:33Z</time>
      </trkpt>
      <trkpt lat="45.04578" lon="5.39267">
        <ele>1158.8</ele>
        <time>2018-12-27T12:11:59Z</time>
      </trkpt>
      <trkpt lat="45.04578" lon="5.39294">
        <ele>1154.13</ele>
        <time>2018-12-27T12:12:19Z</time>
      </trkpt>
      <trkpt lat="45.04582" lon="5.39269">
        <ele>1163.01</ele>
        <time>2018-12-27T12:14:37Z</time>
      </trkpt>
      <trkpt lat="45.04584" lon="5.39297">
        <ele>1159.76</ele>
        <time>2018-12-27T12:17:41Z</time>
      </trkpt>
      <trkpt lat="45.04581" lon="5.39322">
        <ele>1154.27</ele>
        <time>2018-12-27T12:17:59Z</time>
      </trkpt>
      <trkpt lat="45.04578" lon="5.3935">
        <ele>1152.06</ele>
        <time>2018-12-27T12:18:19Z</time>
      </trkpt>
      <trkpt lat="45.0458" lon="5.39377">
        <ele>1153.76</ele>
        <time>2018-12-27T12:18:39Z</time>
      </trkpt>
      <trkpt lat="45.0459" lon="5.39402">
        <ele>1155</ele>
        <time>2018-12-27T12:18:59Z</time>
      </trkpt>
      <trkpt lat="45.0459" lon="5.39431">
        <ele>1149.58</ele>
        <time>2018-12-27T12:19:17Z</time>
      </trkpt>
      <trkpt lat="45.04584" lon="5.39456">
        <ele>1143.21</ele>
        <time>2018-12-27T12:19:39Z</time>
      </trkpt>
      <trkpt lat="45.04583" lon="5.39483">
        <ele>1144.58</ele>
        <time>2018-12-27T12:19:57Z</time>
      </trkpt>
      <trkpt lat="45.04581" lon="5.39509">
        <ele>1153.15</ele>
        <time>2018-12-27T12:21:03Z</time>
      </trkpt>
      <trkpt lat="45.0457" lon="5.39529">
        <ele>1147.82</ele>
        <time>2018-12-27T12:21:15Z</time>
      </trkpt>
      <trkpt lat="45.04561" lon="5.39553">
        <ele>1141.81</ele>
        <time>2018-12-27T12:22:13Z</time>
      </trkpt>
      <trkpt lat="45.04543" lon="5.39567">
        <ele>1145.2</ele>
        <time>2018-12-27T12:22:29Z</time>
      </trkpt>
      <trkpt lat="45.04533" lon="5.3959">
        <ele>1149.2</ele>
        <time>2018-12-27T12:22:49Z</time>
      </trkpt>
      <trkpt lat="45.04518" lon="5.39606">
        <ele>1141.86</ele>
        <time>2018-12-27T12:24:09Z</time>
      </trkpt>
      <trkpt lat="45.04505" lon="5.39624">
        <ele>1139.3</ele>
        <time>2018-12-27T12:24:43Z</time>
      </trkpt>
      <trkpt lat="45.04493" lon="5.39643">
        <ele>1129.05</ele>
        <time>2018-12-27T12:26:01Z</time>
      </trkpt>
      <trkpt lat="45.04485" lon="5.39678">
        <ele>1121.81</ele>
        <time>2018-12-27T12:27:59Z</time>
      </trkpt>
      <trkpt lat="45.04471" lon="5.39696">
        <ele>1107.33</ele>
        <time>2018-12-27T12:29:17Z</time>
      </trkpt>
      <trkpt lat="45.04462" lon="5.39718">
        <ele>1104.13</ele>
        <time>2018-12-27T12:29:49Z</time>
      </trkpt>
      <trkpt lat="45.04442" lon="5.39729">
        <ele>1091.71</ele>
        <time>2018-12-27T12:30:21Z</time>
      </trkpt>
      <trkpt lat="45.04459" lon="5.39745">
        <ele>1097.09</ele>
        <time>2018-12-27T12:30:37Z</time>
      </trkpt>
      <trkpt lat="45.04463" lon="5.3977">
        <ele>1101.16</ele>
        <time>2018-12-27T12:31:09Z</time>
      </trkpt>
      <trkpt lat="45.04479" lon="5.39783">
        <ele>1107.96</ele>
        <time>2018-12-27T12:31:53Z</time>
      </trkpt>
      <trkpt lat="45.04497" lon="5.3979">
        <ele>1118.69</ele>
        <time>2018-12-27T12:32:31Z</time>
      </trkpt>
      <trkpt lat="45.04495" lon="5.39815">
        <ele>1112.05</ele>
        <time>2018-12-27T12:33:13Z</time>
      </trkpt>
      <trkpt lat="45.0451" lon="5.3983">
        <ele>1122.54</ele>
        <time>2018-12-27T12:33:33Z</time>
      </trkpt>
      <trkpt lat="45.04515" lon="5.39854">
        <ele>1135.28</ele>
        <time>2018-12-27T12:34:09Z</time>
      </trkpt>
      <trkpt lat="45.04524" lon="5.39879">
        <ele>1139.76</ele>
        <time>2018-12-27T12:34:35Z</time>
      </trkpt>
      <trkpt lat="45.04522" lon="5.39904">
        <ele>1131.11</ele>
        <time>2018-12-27T12:36:59Z</time>
      </trkpt>
      <trkpt lat="45.04537" lon="5.39921">
        <ele>1137.85</ele>
        <time>2018-12-27T12:37:49Z</time>
      </trkpt>
      <trkpt lat="45.04548" lon="5.39943">
        <ele>1139.81</ele>
        <time>2018-12-27T12:38:15Z</time>
      </trkpt>
      <trkpt lat="45.04559" lon="5.39967">
        <ele>1136.81</ele>
        <time>2018-12-27T12:38:49Z</time>
      </trkpt>
      <trkpt lat="45.04571" lon="5.3998">
        <ele>906.59</ele>
        <time>2018-12-27T12:51:33Z</time>
      </trkpt>
      <trkpt lat="45.04587" lon="5.39991">
        <ele>879.02</ele>
        <time>2018-12-27T12:52:33Z</time>
      </trkpt>
      <trkpt lat="45.04602" lon="5.40006">
        <ele>865.18</ele>
        <time>2018-12-27T12:53:39Z</time>
      </trkpt>
      <trkpt lat="45.0462" lon="5.40006">
        <ele>854.08</ele>
        <time>2018-12-27T12:54:21Z</time>
      </trkpt>
      <trkpt lat="45.04638" lon="5.40004">
        <ele>841.44</ele>
        <time>2018-12-27T12:54:59Z</time>
      </trkpt>
      <trkpt lat="45.04656" lon="5.4002">
        <ele>831.34</ele>
        <time>2018-12-27T12:55:41Z</time>
      </trkpt>
      <trkpt lat="45.04674" lon="5.4002">
        <ele>812.27</ele>
        <time>2018-12-27T12:56:35Z</time>
      </trkpt>
      <trkpt lat="45.04693" lon="5.40025">
        <ele>795.74</ele>
        <time>2018-12-27T12:57:09Z</time>
      </trkpt>
      <trkpt lat="45.04713" lon="5.40028">
        <ele>790.16</ele>
        <time>2018-12-27T12:57:45Z</time>
      </trkpt>
      <trkpt lat="45.04735" lon="5.40023">
        <ele>775.05</ele>
        <time>2018-12-27T12:58:41Z</time>
      </trkpt>
      <trkpt lat="45.04752" lon="5.40015">
        <ele>761.21</ele>
        <time>2018-12-27T12:59:37Z</time>
      </trkpt>
      <trkpt lat="45.04771" lon="5.40014">
        <ele>754.24</ele>
        <time>2018-12-27T13:00:17Z</time>
      </trkpt>
      <trkpt lat="45.0479" lon="5.40023">
        <ele>742.85</ele>
        <time>2018-12-27T13:00:35Z</time>
      </trkpt>
      <trkpt lat="45.04806" lon="5.40034">
        <ele>719.08</ele>
        <time>2018-12-27T13:01:47Z</time>
      </trkpt>
      <trkpt lat="45.04826" lon="5.40036">
        <ele>710.6</ele>
        <time>2018-12-27T13:03:01Z</time>
      </trkpt>
      <trkpt lat="45.04844" lon="5.4004">
        <ele>696.53</ele>
        <time>2018-12-27T13:03:29Z</time>
      </trkpt>
      <trkpt lat="45.04863" lon="5.40044">
        <ele>694.98</ele>
        <time>2018-12-27T13:04:23Z</time>
      </trkpt>
      <trkpt lat="45.04882" lon="5.40047">
        <ele>685.73</ele>
        <time>2018-12-27T13:04:49Z</time>
      </trkpt>
      <trkpt lat="45.04897" lon="5.4006">
        <ele>665.05</ele>
        <time>2018-12-27T13:05:53Z</time>
      </trkpt>
      <trkpt lat="45.04893" lon="5.40034">
        <ele>664.85</ele>
        <time>2018-12-27T13:06:21Z</time>
      </trkpt>
      <trkpt lat="45.04901" lon="5.4001">
        <ele>655.72</ele>
        <time>2018-12-27T13:08:07Z</time>
      </trkpt>
      <trkpt lat="45.04915" lon="5.39991">
        <ele>654.82</ele>
        <time>2018-12-27T13:08:31Z</time>
      </trkpt>
      <trkpt lat="45.04914" lon="5.39964">
        <ele>655.97</ele>
        <time>2018-12-27T13:08:53Z</time>
      </trkpt>
      <trkpt lat="45.04923" lon="5.3994">
        <ele>663.12</ele>
        <time>2018-12-27T13:09:11Z</time>
      </trkpt>
      <trkpt lat="45.04928" lon="5.39915">
        <ele>658.13</ele>
        <time>2018-12-27T13:09:37Z</time>
      </trkpt>
      <trkpt lat="45.04942" lon="5.39897">
        <ele>649.53</ele>
        <time>2018-12-27T13:09:53Z</time>
      </trkpt>
      <trkpt lat="45.04946" lon="5.39872">
        <ele>650.76</ele>
        <time>2018-12-27T13:10:07Z</time>
      </trkpt>
      <trkpt lat="45.04958" lon="5.39849">
        <ele>654.21</ele>
        <time>2018-12-27T13:10:23Z</time>
      </trkpt>
      <trkpt lat="45.0497" lon="5.39828">
        <ele>664.7</ele>
        <time>2018-12-27T13:10:41Z</time>
      </trkpt>
      <trkpt lat="45.04985" lon="5.39811">
        <ele>662.65</ele>
        <time>2018-12-27T13:10:55Z</time>
      </trkpt>
      <trkpt lat="45.04998" lon="5.3979">
        <ele>651.85</ele>
        <time>2018-12-27T13:11:07Z</time>
      </trkpt>
      <trkpt lat="45.05003" lon="5.3976">
        <ele>647.06</ele>
        <time>2018-12-27T13:11:23Z</time>
      </trkpt>
      <trkpt lat="45.05012" lon="5.39737">
        <ele>643.25</ele>
        <time>2018-12-27T13:11:37Z</time>
      </trkpt>
      <trkpt lat="45.05019" lon="5.39709">
        <ele>642.07</ele>
        <time>2018-12-27T13:11:51Z</time>
      </trkpt>
      <trkpt lat="45.0502" lon="5.39681">
        <ele>643.01</ele>
        <time>2018-12-27T13:12:05Z</time>
      </trkpt>
      <trkpt lat="45.05027" lon="5.39657">
        <ele>644.8</ele>
        <time>2018-12-27T13:12:21Z</time>
      </trkpt>
      <trkpt lat="45.05037" lon="5.39631">
        <ele>650.04</ele>
        <time>2018-12-27T13:12:41Z</time>
      </trkpt>
      <trkpt lat="45.05046" lon="5.39609">
        <ele>655.92</ele>
        <time>2018-12-27T13:12:57Z</time>
      </trkpt>
      <trkpt lat="45.05059" lon="5.39587">
        <ele>655.22</ele>
        <time>2018-12-27T13:13:09Z</time>
      </trkpt>
      <trkpt lat="45.05069" lon="5.39565">
        <ele>653.52</ele>
        <time>2018-12-27T13:13:21Z</time>
      </trkpt>
      <trkpt lat="45.05077" lon="5.39542">
        <ele>658.54</ele>
        <time>2018-12-27T13:13:41Z</time>
      </trkpt>
      <trkpt lat="45.05084" lon="5.39518">
        <ele>654.89</ele>
        <time>2018-12-27T13:13:55Z</time>
      </trkpt>
      <trkpt lat="45.05094" lon="5.39496">
        <ele>649.28</ele>
        <time>2018-12-27T13:14:09Z</time>
      </trkpt>
      <trkpt lat="45.05107" lon="5.39473">
        <ele>654.59</ele>
        <time>2018-12-27T13:14:25Z</time>
      </trkpt>
      <trkpt lat="45.05124" lon="5.39456">
        <ele>657.99</ele>
        <time>2018-12-27T13:14:39Z</time>
      </trkpt>
      <trkpt lat="45.05139" lon="5.39439">
        <ele>663.41</ele>
        <time>2018-12-27T13:14:53Z</time>
      </trkpt>
      <trkpt lat="45.05157" lon="5.39426">
        <ele>665.2</ele>
        <time>2018-12-27T13:15:07Z</time>
      </trkpt>
      <trkpt lat="45.05175" lon="5.39413">
        <ele>672.7</ele>
        <time>2018-12-27T13:15:25Z</time>
      </trkpt>
      <trkpt lat="45.05193" lon="5.39405">
        <ele>668.17</ele>
        <time>2018-12-27T13:15:39Z</time>
      </trkpt>
      <trkpt lat="45.0521" lon="5.39391">
        <ele>659.11</ele>
        <time>2018-12-27T13:15:51Z</time>
      </trkpt>
      <trkpt lat="45.05228" lon="5.39382">
        <ele>651.02</ele>
        <time>2018-12-27T13:16:17Z</time>
      </trkpt>
      <trkpt lat="45.05242" lon="5.39364">
        <ele>651.64</ele>
        <time>2018-12-27T13:16:31Z</time>
      </trkpt>
      <trkpt lat="45.05258" lon="5.39352">
        <ele>651.74</ele>
        <time>2018-12-27T13:16:45Z</time>
      </trkpt>
      <trkpt lat="45.05274" lon="5.39338">
        <ele>643.25</ele>
        <time>2018-12-27T13:17:05Z</time>
      </trkpt>
      <trkpt lat="45.0529" lon="5.39325">
        <ele>644.63</ele>
        <time>2018-12-27T13:17:19Z</time>
      </trkpt>
      <trkpt lat="45.05306" lon="5.39311">
        <ele>645.99</ele>
        <time>2018-12-27T13:17:37Z</time>
      </trkpt>
      <trkpt lat="45.05324" lon="5.39298">
        <ele>648.64</ele>
        <time>2018-12-27T13:17:53Z</time>
      </trkpt>
      <trkpt lat="45.0534" lon="5.39285">
        <ele>642.04</ele>
        <time>2018-12-27T13:18:07Z</time>
      </trkpt>
      <trkpt lat="45.05359" lon="5.39276">
        <ele>641.18</ele>
        <time>2018-12-27T13:18:21Z</time>
      </trkpt>
      <trkpt lat="45.05378" lon="5.39273">
        <ele>640.21</ele>
        <time>2018-12-27T13:18:37Z</time>
      </trkpt>
      <trkpt lat="45.05396" lon="5.39269">
        <ele>643.69</ele>
        <time>2018-12-27T13:18:51Z</time>
      </trkpt>
      <trkpt lat="45.05415" lon="5.39255">
        <ele>631.39</ele>
        <time>2018-12-27T13:19:05Z</time>
      </trkpt>
      <trkpt lat="45.05436" lon="5.39244">
        <ele>624.79</ele>
        <time>2018-12-27T13:19:19Z</time>
      </trkpt>
      <trkpt lat="45.05456" lon="5.39244">
        <ele>621.89</ele>
        <time>2018-12-27T13:19:35Z</time>
      </trkpt>
      <trkpt lat="45.05475" lon="5.39248">
        <ele>628.74</ele>
        <time>2018-12-27T13:19:51Z</time>
      </trkpt>
      <trkpt lat="45.05494" lon="5.3925">
        <ele>640.45</ele>
        <time>2018-12-27T13:20:11Z</time>
      </trkpt>
      <trkpt lat="45.05511" lon="5.3924">
        <ele>649.58</ele>
        <time>2018-12-27T13:20:31Z</time>
      </trkpt>
      <trkpt lat="45.0553" lon="5.39228">
        <ele>652.2</ele>
        <time>2018-12-27T13:20:47Z</time>
      </trkpt>
      <trkpt lat="45.05546" lon="5.39211">
        <ele>653.23</ele>
        <time>2018-12-27T13:21:05Z</time>
      </trkpt>
      <trkpt lat="45.05563" lon="5.39202">
        <ele>651.16</ele>
        <time>2018-12-27T13:21:23Z</time>
      </trkpt>
      <trkpt lat="45.05582" lon="5.3919">
        <ele>648.85</ele>
        <time>2018-12-27T13:21:37Z</time>
      </trkpt>
      <trkpt lat="45.05601" lon="5.3918">
        <ele>652.4</ele>
        <time>2018-12-27T13:21:53Z</time>
      </trkpt>
      <trkpt lat="45.05617" lon="5.39168">
        <ele>650.02</ele>
        <time>2018-12-27T13:22:07Z</time>
      </trkpt>
      <trkpt lat="45.05636" lon="5.39163">
        <ele>655.84</ele>
        <time>2018-12-27T13:22:21Z</time>
      </trkpt>
      <trkpt lat="45.05654" lon="5.39157">
        <ele>656.39</ele>
        <time>2018-12-27T13:22:35Z</time>
      </trkpt>
      <trkpt lat="45.05672" lon="5.39153">
        <ele>653.2</ele>
        <time>2018-12-27T13:22:49Z</time>
      </trkpt>
      <trkpt lat="45.05693" lon="5.39151">
        <ele>653.84</ele>
        <time>2018-12-27T13:23:07Z</time>
      </trkpt>
      <trkpt lat="45.05711" lon="5.39155">
        <ele>658.75</ele>
        <time>2018-12-27T13:23:25Z</time>
      </trkpt>
      <trkpt lat="45.0573" lon="5.3915">
        <ele>649.05</ele>
        <time>2018-12-27T13:23:41Z</time>
      </trkpt>
      <trkpt lat="45.05749" lon="5.39145">
        <ele>644.77</ele>
        <time>2018-12-27T13:23:55Z</time>
      </trkpt>
      <trkpt lat="45.05771" lon="5.39138">
        <ele>641.64</ele>
        <time>2018-12-27T13:24:09Z</time>
      </trkpt>
      <trkpt lat="45.05791" lon="5.39135">
        <ele>635.05</ele>
        <time>2018-12-27T13:24:23Z</time>
      </trkpt>
      <trkpt lat="45.05808" lon="5.39127">
        <ele>632.82</ele>
        <time>2018-12-27T13:24:37Z</time>
      </trkpt>
      <trkpt lat="45.05828" lon="5.39123">
        <ele>636.56</ele>
        <time>2018-12-27T13:24:49Z</time>
      </trkpt>
      <trkpt lat="45.05847" lon="5.3912">
        <ele>625.63</ele>
        <time>2018-12-27T13:25:01Z</time>
      </trkpt>
      <trkpt lat="45.0586" lon="5.39101">
        <ele>615.88</ele>
        <time>2018-12-27T13:25:19Z</time>
      </trkpt>
      <trkpt lat="45.05871" lon="5.39077">
        <ele>604.82</ele>
        <time>2018-12-27T13:26:13Z</time>
      </trkpt>
      <trkpt lat="45.05884" lon="5.39057">
        <ele>608.81</ele>
        <time>2018-12-27T13:26:27Z</time>
      </trkpt>
      <trkpt lat="45.05897" lon="5.39032">
        <ele>609.62</ele>
        <time>2018-12-27T13:26:43Z</time>
      </trkpt>
      <trkpt lat="45.059" lon="5.39004">
        <ele>606</ele>
        <time>2018-12-27T13:27:01Z</time>
      </trkpt>
      <trkpt lat="45.05906" lon="5.3898">
        <ele>595.49</ele>
        <time>2018-12-27T13:27:15Z</time>
      </trkpt>
      <trkpt lat="45.05922" lon="5.38967">
        <ele>591.8</ele>
        <time>2018-12-27T13:27:33Z</time>
      </trkpt>
      <trkpt lat="45.05936" lon="5.38949">
        <ele>592</ele>
        <time>2018-12-27T13:27:53Z</time>
      </trkpt>
      <trkpt lat="45.05948" lon="5.38929">
        <ele>589.09</ele>
        <time>2018-12-27T13:28:07Z</time>
      </trkpt>
      <trkpt lat="45.05964" lon="5.38911">
        <ele>596.75</ele>
        <time>2018-12-27T13:28:27Z</time>
      </trkpt>
      <trkpt lat="45.0598" lon="5.38895">
        <ele>607.93</ele>
        <time>2018-12-27T13:28:51Z</time>
      </trkpt>
      <trkpt lat="45.05994" lon="5.38875">
        <ele>602.17</ele>
        <time>2018-12-27T13:29:05Z</time>
      </trkpt>
      <trkpt lat="45.06007" lon="5.38853">
        <ele>600.99</ele>
        <time>2018-12-27T13:29:19Z</time>
      </trkpt>
      <trkpt lat="45.06018" lon="5.38829">
        <ele>602.8</ele>
        <time>2018-12-27T13:29:37Z</time>
      </trkpt>
      <trkpt lat="45.06028" lon="5.38807">
        <ele>604.17</ele>
        <time>2018-12-27T13:29:53Z</time>
      </trkpt>
      <trkpt lat="45.06038" lon="5.38784">
        <ele>612.92</ele>
        <time>2018-12-27T13:30:31Z</time>
      </trkpt>
      <trkpt lat="45.06047" lon="5.38762">
        <ele>616.2</ele>
        <time>2018-12-27T13:30:47Z</time>
      </trkpt>
      <trkpt lat="45.06042" lon="5.38735">
        <ele>613.25</ele>
        <time>2018-12-27T13:31:05Z</time>
      </trkpt>
      <trkpt lat="45.06051" lon="5.3871">
        <ele>609.85</ele>
        <time>2018-12-27T13:31:21Z</time>
      </trkpt>
      <trkpt lat="45.06053" lon="5.38685">
        <ele>616.24</ele>
        <time>2018-12-27T13:31:39Z</time>
      </trkpt>
      <trkpt lat="45.06059" lon="5.38657">
        <ele>609.05</ele>
        <time>2018-12-27T13:32:01Z</time>
      </trkpt>
      <trkpt lat="45.06057" lon="5.38631">
        <ele>615.76</ele>
        <time>2018-12-27T13:32:17Z</time>
      </trkpt>
      <trkpt lat="45.06054" lon="5.38603">
        <ele>614.77</ele>
        <time>2018-12-27T13:32:33Z</time>
      </trkpt>
      <trkpt lat="45.06051" lon="5.38577">
        <ele>621.71</ele>
        <time>2018-12-27T13:32:47Z</time>
      </trkpt>
      <trkpt lat="45.06042" lon="5.3855">
        <ele>623.99</ele>
        <time>2018-12-27T13:33:01Z</time>
      </trkpt>
      <trkpt lat="45.06028" lon="5.38532">
        <ele>625.98</ele>
        <time>2018-12-27T13:33:19Z</time>
      </trkpt>
      <trkpt lat="45.06026" lon="5.38504">
        <ele>634.6</ele>
        <time>2018-12-27T13:33:33Z</time>
      </trkpt>
      <trkpt lat="45.06013" lon="5.38485">
        <ele>623.31</ele>
        <time>2018-12-27T13:33:45Z</time>
      </trkpt>
      <trkpt lat="45.06007" lon="5.38461">
        <ele>620.15</ele>
        <time>2018-12-27T13:34:07Z</time>
      </trkpt>
      <trkpt lat="45.05998" lon="5.38438">
        <ele>621.77</ele>
        <time>2018-12-27T13:34:15Z</time>
      </trkpt>
      <trkpt lat="45.0599" lon="5.38413">
        <ele>617.57</ele>
        <time>2018-12-27T13:34:27Z</time>
      </trkpt>
      <trkpt lat="45.05983" lon="5.38386">
        <ele>615.03</ele>
        <time>2018-12-27T13:34:43Z</time>
      </trkpt>
      <trkpt lat="45.05975" lon="5.38362">
        <ele>618.52</ele>
        <time>2018-12-27T13:34:59Z</time>
      </trkpt>
      <trkpt lat="45.05968" lon="5.38336">
        <ele>615.9</ele>
        <time>2018-12-27T13:35:13Z</time>
      </trkpt>
      <trkpt lat="45.05963" lon="5.38309">
        <ele>621.81</ele>
        <time>2018-12-27T13:35:25Z</time>
      </trkpt>
      <trkpt lat="45.0597" lon="5.38283">
        <ele>615.28</ele>
        <time>2018-12-27T13:35:39Z</time>
      </trkpt>
      <trkpt lat="45.05951" lon="5.38268">
        <ele>609.04</ele>
        <time>2018-12-27T13:35:47Z</time>
      </trkpt>
      <trkpt lat="45.05942" lon="5.38246">
        <ele>606.6</ele>
        <time>2018-12-27T13:36:01Z</time>
      </trkpt>
      <trkpt lat="45.05934" lon="5.3822">
        <ele>616.54</ele>
        <time>2018-12-27T13:36:17Z</time>
      </trkpt>
      <trkpt lat="45.05932" lon="5.38191">
        <ele>620.04</ele>
        <time>2018-12-27T13:36:33Z</time>
      </trkpt>
      <trkpt lat="45.05929" lon="5.38162">
        <ele>622.69</ele>
        <time>2018-12-27T13:36:45Z</time>
      </trkpt>
      <trkpt lat="45.05926" lon="5.38136">
        <ele>619.6</ele>
        <time>2018-12-27T13:36:57Z</time>
      </trkpt>
      <trkpt lat="45.05921" lon="5.38106">
        <ele>614.13</ele>
        <time>2018-12-27T13:37:11Z</time>
      </trkpt>
      <trkpt lat="45.05921" lon="5.3808">
        <ele>615.96</ele>
        <time>2018-12-27T13:37:23Z</time>
      </trkpt>
      <trkpt lat="45.05912" lon="5.38053">
        <ele>613.25</ele>
        <time>2018-12-27T13:37:35Z</time>
      </trkpt>
      <trkpt lat="45.05914" lon="5.3802">
        <ele>613.71</ele>
        <time>2018-12-27T13:37:53Z</time>
      </trkpt>
      <trkpt lat="45.05928" lon="5.37994">
        <ele>610.47</ele>
        <time>2018-12-27T13:38:05Z</time>
      </trkpt>
      <trkpt lat="45.05945" lon="5.37981">
        <ele>614.77</ele>
        <time>2018-12-27T13:38:23Z</time>
      </trkpt>
      <trkpt lat="45.05963" lon="5.37972">
        <ele>618.79</ele>
        <time>2018-12-27T13:38:35Z</time>
      </trkpt>
      <trkpt lat="45.05973" lon="5.3795">
        <ele>607.06</ele>
        <time>2018-12-27T13:39:11Z</time>
      </trkpt>
      <trkpt lat="45.05986" lon="5.37931">
        <ele>604.77</ele>
        <time>2018-12-27T13:39:27Z</time>
      </trkpt>
      <trkpt lat="45.05997" lon="5.3791">
        <ele>603.6</ele>
        <time>2018-12-27T13:39:45Z</time>
      </trkpt>
      <trkpt lat="45.06007" lon="5.37885">
        <ele>601.33</ele>
        <time>2018-12-27T13:39:57Z</time>
      </trkpt>
      <trkpt lat="45.06007" lon="5.37858">
        <ele>601.73</ele>
        <time>2018-12-27T13:40:15Z</time>
      </trkpt>
      <trkpt lat="45.0601" lon="5.37831">
        <ele>601.39</ele>
        <time>2018-12-27T13:40:27Z</time>
      </trkpt>
      <trkpt lat="45.06013" lon="5.37802">
        <ele>602</ele>
        <time>2018-12-27T13:40:41Z</time>
      </trkpt>
      <trkpt lat="45.0602" lon="5.37774">
        <ele>595.12</ele>
        <time>2018-12-27T13:40:55Z</time>
      </trkpt>
      <trkpt lat="45.06026" lon="5.37746">
        <ele>592.04</ele>
        <time>2018-12-27T13:41:11Z</time>
      </trkpt>
      <trkpt lat="45.06034" lon="5.3772">
        <ele>586.91</ele>
        <time>2018-12-27T13:41:25Z</time>
      </trkpt>
      <trkpt lat="45.06049" lon="5.37699">
        <ele>593.4</ele>
        <time>2018-12-27T13:41:35Z</time>
      </trkpt>
      <trkpt lat="45.06038" lon="5.37677">
        <ele>595</ele>
        <time>2018-12-27T13:41:55Z</time>
      </trkpt>
      <trkpt lat="45.06022" lon="5.3766">
        <ele>590.1</ele>
        <time>2018-12-27T13:42:07Z</time>
      </trkpt>
      <trkpt lat="45.06003" lon="5.37651">
        <ele>588.05</ele>
        <time>2018-12-27T13:42:29Z</time>
      </trkpt>
      <trkpt lat="45.05984" lon="5.37644">
        <ele>579.49</ele>
        <time>2018-12-27T13:42:43Z</time>
      </trkpt>
      <trkpt lat="45.05967" lon="5.3763">
        <ele>578.61</ele>
        <time>2018-12-27T13:42:59Z</time>
      </trkpt>
      <trkpt lat="45.05959" lon="5.37606">
        <ele>583.72</ele>
        <time>2018-12-27T13:43:11Z</time>
      </trkpt>
      <trkpt lat="45.05943" lon="5.37586">
        <ele>580.13</ele>
        <time>2018-12-27T13:43:23Z</time>
      </trkpt>
      <trkpt lat="45.05927" lon="5.37573">
        <ele>577.81</ele>
        <time>2018-12-27T13:43:37Z</time>
      </trkpt>
      <trkpt lat="45.05913" lon="5.3755">
        <ele>573.09</ele>
        <time>2018-12-27T13:43:55Z</time>
      </trkpt>
      <trkpt lat="45.059" lon="5.37528">
        <ele>570</ele>
        <time>2018-12-27T13:44:09Z</time>
      </trkpt>
      <trkpt lat="45.05888" lon="5.37508">
        <ele>573.08</ele>
        <time>2018-12-27T13:44:25Z</time>
      </trkpt>
      <trkpt lat="45.05874" lon="5.37489">
        <ele>566.23</ele>
        <time>2018-12-27T13:44:39Z</time>
      </trkpt>
      <trkpt lat="45.05866" lon="5.37467">
        <ele>573.03</ele>
        <time>2018-12-27T13:44:55Z</time>
      </trkpt>
      <trkpt lat="45.0585" lon="5.3745">
        <ele>567.6</ele>
        <time>2018-12-27T13:45:07Z</time>
      </trkpt>
      <trkpt lat="45.05836" lon="5.3743">
        <ele>563.65</ele>
        <time>2018-12-27T13:45:21Z</time>
      </trkpt>
      <trkpt lat="45.05819" lon="5.37421">
        <ele>565.16</ele>
        <time>2018-12-27T13:45:41Z</time>
      </trkpt>
      <trkpt lat="45.05801" lon="5.37409">
        <ele>559.18</ele>
        <time>2018-12-27T13:45:57Z</time>
      </trkpt>
      <trkpt lat="45.05784" lon="5.37404">
        <ele>555.81</ele>
        <time>2018-12-27T13:48:17Z</time>
      </trkpt>
      <trkpt lat="45.05771" lon="5.37423">
        <ele>548.22</ele>
        <time>2018-12-27T13:48:41Z</time>
      </trkpt>
      <trkpt lat="45.05753" lon="5.37436">
        <ele>547.04</ele>
        <time>2018-12-27T13:49:23Z</time>
      </trkpt>
      <trkpt lat="45.05735" lon="5.37444">
        <ele>548.21</ele>
        <time>2018-12-27T13:49:37Z</time>
      </trkpt>
      <trkpt lat="45.05715" lon="5.3744">
        <ele>546.21</ele>
        <time>2018-12-27T13:49:53Z</time>
      </trkpt>
      <trkpt lat="45.057" lon="5.37424">
        <ele>547.14</ele>
        <time>2018-12-27T13:50:11Z</time>
      </trkpt>
      <trkpt lat="45.05681" lon="5.37413">
        <ele>540.3</ele>
        <time>2018-12-27T13:50:35Z</time>
      </trkpt>
      <trkpt lat="45.05694" lon="5.37395">
        <ele>535.96</ele>
        <time>2018-12-27T13:51:13Z</time>
      </trkpt>
      <trkpt lat="45.05713" lon="5.37386">
        <ele>539.97</ele>
        <time>2018-12-27T13:51:31Z</time>
      </trkpt>
      <trkpt lat="45.05722" lon="5.3736">
        <ele>547.06</ele>
        <time>2018-12-27T13:51:49Z</time>
      </trkpt>
      <trkpt lat="45.05731" lon="5.37335">
        <ele>549.96</ele>
        <time>2018-12-27T13:52:11Z</time>
      </trkpt>
      <trkpt lat="45.0575" lon="5.37325">
        <ele>543.83</ele>
        <time>2018-12-27T13:52:29Z</time>
      </trkpt>
      <trkpt lat="45.05767" lon="5.37315">
        <ele>544.97</ele>
        <time>2018-12-27T13:52:47Z</time>
      </trkpt>
    </trkseg>
  </trk>
</gpx>